Latest Weather Observations for Lord Howe Island Windy Point

IDN60801

Issued at 10:03 pm EST Sunday 28 August 2016 (issued every 30 minutes, with the page automatically refreshed every 10 minutes)

About weather observations | Map of weather stations | Latest weather observations for NSW | Other Formats
Station Details ID: 200715 Name: LORD HOWE ISLAND WINDY POINT Lat: -31.54 Lon: 159.07 Height: 4.0 m
Data from the previous 72 hours. | See also: Recent months for locations in New South Wales
Date/Time
EST
Temp
°C
App
Temp
°C
Dew
Point
°C
Rel
Hum
%
Delta-T
°C
Wind Press
QNH
hPa
Press
MSL
hPa
Rain since
9am
mm
Dir  Spd
km/h
Gust
km/h
Spd
kts
Gust
kts
28/10:00pm - - - - - ESE 6 11 3 6 - - -
28/09:30pm - - - - - E 7 9 4 5 - - -
28/09:00pm - - - - - ESE 6 9 3 5 - - -
28/08:30pm - - - - - ESE 9 15 5 8 - - -
28/08:00pm - - - - - SE 9 17 5 9 - - -
28/07:30pm - - - - - SSE 13 17 7 9 - - -
28/07:00pm - - - - - SE 13 20 7 11 - - -
28/06:30pm - - - - - S 19 28 10 15 - - -
28/06:00pm - - - - - S 22 33 12 18 - - -
28/05:30pm - - - - - S 24 35 13 19 - - -
28/05:00pm - - - - - S 26 35 14 19 - - -
28/04:39pm - - - - - S 28 46 15 25 - - -
28/04:30pm - - - - - S 26 46 14 25 - - -
28/04:00pm - - - - - SSE 20 32 11 17 - - -
28/03:30pm - - - - - SSW 28 37 15 20 - - -
28/03:00pm - - - - - S 26 46 14 25 - - -
28/02:34pm - - - - - SSW 30 48 16 26 - - -
28/02:30pm - - - - - SSW 32 48 17 26 - - -
28/02:00pm - - - - - SSW 32 43 17 23 - - -
28/01:31pm - - - - - S 32 54 17 29 - - -
28/01:30pm - - - - - S 32 46 17 25 - - -
28/01:08pm - - - - - S 32 50 17 27 - - -
28/01:00pm - - - - - SSW 35 48 19 26 - - -
28/12:30pm - - - - - S 30 57 16 31 - - -
28/12:00pm - - - - - S 33 59 18 32 - - -
28/11:37am - - - - - S 30 48 16 26 - - -
28/11:30am - - - - - S 33 48 18 26 - - -
28/11:00am - - - - - SSW 30 56 16 30 - - -
28/10:30am - - - - - S 32 54 17 29 - - -
28/10:00am - - - - - S 37 57 20 31 - - -
28/09:30am - - - - - S 33 57 18 31 - - -
28/09:00am - - - - - S 24 59 13 32 - - -
28/08:45am - - - - - S 28 63 15 34 - - -
28/08:30am - - - - - S 22 61 12 33 - - -
28/08:14am - - - - - S 20 56 11 30 - - -
28/08:00am - - - - - S 22 43 12 23 - - -
28/07:30am - - - - - SSW 28 48 15 26 - - -
28/07:26am - - - - - SSW 28 48 15 26 - - -
28/07:00am - - - - - SE 20 35 11 19 - - -
28/06:44am - - - - - S 22 59 12 32 - - -
28/06:30am - - - - - E 13 39 7 21 - - -
28/06:07am - - - - - SE 24 52 13 28 - - -
28/06:00am - - - - - SE 24 46 13 25 - - -
28/05:52am - - - - - ESE 26 56 14 30 - - -
28/05:50am - - - - - ESE 24 56 13 30 - - -
28/05:30am - - - - - SSE 19 46 10 25 - - -
28/05:00am - - - - - ESE 24 46 13 25 - - -
28/04:30am - - - - - SSE 24 65 13 35 - - -
28/04:00am - - - - - ESE 22 57 12 31 - - -
28/03:58am - - - - - ESE 22 57 12 31 - - -
28/03:30am - - - - - SE 22 48 12 26 - - -
28/03:00am - - - - - ESE 22 48 12 26 - - -
28/02:30am - - - - - ESE 28 57 15 31 - - -
28/02:25am - - - - - ESE 24 57 13 31 - - -
28/02:00am - - - - - SE 15 33 8 18 - - -
28/01:30am - - - - - SE 20 33 11 18 - - -
28/01:00am - - - - - SE 19 35 10 19 - - -
28/12:30am - - - - - S 20 35 11 19 - - -
28/12:00am - - - - - ESE 19 33 10 18 - - -
 
Date/Time
EST
Temp
°C
App
Temp
°C
Dew
Point
°C
Rel
Hum
%
Delta-T
°C
Wind Press
QNH
hPa
Press
MSL
hPa
Rain since
9am
mm
Dir  Spd
km/h
Gust
km/h
Spd
kts
Gust
kts
27/11:30pm - - - - - SE 15 26 8 14 - - -
27/11:00pm - - - - - ESE 22 43 12 23 - - -
27/10:30pm - - - - - ESE 24 39 13 21 - - -
27/10:00pm - - - - - ESE 26 48 14 26 - - -
27/09:52pm - - - - - ESE 28 48 15 26 - - -
27/09:30pm - - - - - ESE 26 41 14 22 - - -
27/09:00pm - - - - - ESE 22 39 12 21 - - -
27/08:30pm - - - - - SE 22 33 12 18 - - -
27/08:04pm - - - - - ESE 30 48 16 26 - - -
27/08:00pm - - - - - ESE 33 48 18 26 - - -
27/07:51pm - - - - - ESE 30 48 16 26 - - -
27/07:30pm - - - - - ESE 28 44 15 24 - - -
27/07:15pm - - - - - ESE 33 52 18 28 - - -
27/07:00pm - - - - - ESE 39 50 21 27 - - -
27/06:30pm - - - - - E 37 48 20 26 - - -
27/06:00pm - - - - - E 39 50 21 27 - - -
27/05:30pm - - - - - E 39 46 21 25 - - -
27/05:00pm - - - - - E 39 50 21 27 - - -
27/04:30pm - - - - - E 41 56 22 30 - - -
27/04:00pm - - - - - E 39 52 21 28 - - -
27/03:30pm - - - - - E 39 48 21 26 - - -
27/03:00pm - - - - - E 43 50 23 27 - - -
27/02:30pm - - - - - ESE 37 46 20 25 - - -
27/02:00pm - - - - - ESE 32 41 17 22 - - -
27/01:30pm - - - - - ESE 33 44 18 24 - - -
27/01:00pm - - - - - ESE 28 41 15 22 - - -
27/12:30pm - - - - - ESE 24 37 13 20 - - -
27/12:00pm - - - - - ESE 32 41 17 22 - - -
27/11:30am - - - - - ESE 24 37 13 20 - - -
27/11:00am - - - - - E 35 46 19 25 - - -
27/10:30am - - - - - E 35 43 19 23 - - -
27/10:00am - - - - - E 35 44 19 24 - - -
27/09:30am - - - - - ENE 35 44 19 24 - - -
27/09:13am - - - - - ENE 35 54 19 29 - - -
27/09:00am - - - - - ENE 32 44 17 24 - - -
27/08:30am - - - - - E 35 41 19 22 - - -
27/08:00am - - - - - E 32 37 17 20 - - -
27/07:30am - - - - - E 28 35 15 19 - - -
27/07:00am - - - - - E 30 37 16 20 - - -
27/06:30am - - - - - E 30 39 16 21 - - -
27/06:00am - - - - - E 32 35 17 19 - - -
27/05:30am - - - - - ESE 26 32 14 17 - - -
27/05:00am - - - - - E 30 35 16 19 - - -
27/04:30am - - - - - E 24 30 13 16 - - -
27/04:00am - - - - - ESE 17 28 9 15 - - -
27/03:30am - - - - - ESE 15 22 8 12 - - -
27/03:00am - - - - - E 13 20 7 11 - - -
27/02:30am - - - - - ESE 11 15 6 8 - - -
27/02:00am - - - - - ESE 6 9 3 5 - - -
27/01:30am - - - - - ENE 17 22 9 12 - - -
27/01:00am - - - - - E 24 30 13 16 - - -
27/12:30am - - - - - ENE 19 26 10 14 - - -
27/12:00am - - - - - E 20 24 11 13 - - -
 
Date/Time
EST
Temp
°C
App
Temp
°C
Dew
Point
°C
Rel
Hum
%
Delta-T
°C
Wind Press
QNH
hPa
Press
MSL
hPa
Rain since
9am
mm
Dir  Spd
km/h
Gust
km/h
Spd
kts
Gust
kts
26/11:30pm - - - - - E 19 24 10 13 - - -
26/11:00pm - - - - - ENE 17 20 9 11 - - -
26/10:30pm - - - - - ENE 19 24 10 13 - - -
26/10:00pm - - - - - ENE 20 26 11 14 - - -
26/09:30pm - - - - - E 20 26 11 14 - - -
26/09:00pm - - - - - ENE 15 20 8 11 - - -
26/08:30pm - - - - - ESE 15 20 8 11 - - -
26/08:00pm - - - - - ESE 17 22 9 12 - - -
26/07:30pm - - - - - ESE 13 19 7 10 - - -
26/07:00pm - - - - - E 6 9 3 5 - - -
26/06:30pm - - - - - ESE 4 7 2 4 - - -
26/06:00pm - - - - - NE 6 7 3 4 - - -
26/05:30pm - - - - - NE 2 7 1 4 - - -
26/05:00pm - - - - - SSW 20 26 11 14 - - -
26/04:30pm - - - - - ESE 9 13 5 7 - - -
26/04:00pm - - - - - ESE 11 15 6 8 - - -
26/03:30pm - - - - - E 13 17 7 9 - - -
26/03:00pm - - - - - SE 6 13 3 7 - - -
26/02:30pm - - - - - WSW 7 9 4 5 - - -
26/02:00pm - - - - - SW 7 11 4 6 - - -
26/01:30pm - - - - - SSW 6 13 3 7 - - -
26/01:00pm - - - - - S 4 7 2 4 - - -
26/12:30pm - - - - - SSW 7 13 4 7 - - -
26/12:00pm - - - - - S 9 13 5 7 - - -
26/11:30am - - - - - SSW 13 15 7 8 - - -
26/11:00am - - - - - SSW 11 15 6 8 - - -
26/10:30am - - - - - SSW 15 20 8 11 - - -
26/10:00am - - - - - SSW 19 24 10 13 - - -
26/09:30am - - - - - SSW 17 22 9 12 - - -
26/09:00am - - - - - S 17 22 9 12 - - -
26/08:30am - - - - - SSW 17 20 9 11 - - -
26/08:00am - - - - - S 13 17 7 9 - - -
26/07:30am - - - - - SE 7 9 4 5 - - -
26/07:00am - - - - - SE 7 13 4 7 - - -
26/06:30am - - - - - S 17 24 9 13 - - -
26/06:00am - - - - - SSE 13 24 7 13 - - -
26/05:30am - - - - - SSW 26 30 14 16 - - -
26/05:00am - - - - - SW 24 30 13 16 - - -
26/04:30am - - - - - SSW 26 33 14 18 - - -
26/04:00am - - - - - SSW 28 33 15 18 - - -
26/03:30am - - - - - SSW 30 33 16 18 - - -
26/03:00am - - - - - SW 32 35 17 19 - - -
26/02:30am - - - - - SSW 32 39 17 21 - - -
26/02:00am - - - - - SSW 32 39 17 21 - - -
26/01:30am - - - - - SW 28 39 15 21 - - -
26/01:00am - - - - - SW 30 37 16 20 - - -
26/12:30am - - - - - SSW 33 39 18 21 - - -
26/12:00am - - - - - SW 30 35 16 19 - - -
 
Date/Time
EST
Temp
°C
App
Temp
°C
Dew
Point
°C
Rel
Hum
%
Delta-T
°C
Wind Press
QNH
hPa
Press
MSL
hPa
Rain since
9am
mm
Dir  Spd
km/h
Gust
km/h
Spd
kts
Gust
kts
25/11:30pm - - - - - SSW 30 35 16 19 - - -
25/11:00pm - - - - - SW 33 41 18 22 - - -
25/10:30pm - - - - - SW 37 46 20 25 - - -

Other Formats:

Comma delimited format used in spreadsheet applications
http://www.bom.gov.au/fwo/IDN60801/IDN60801.95995.axf

JavaScript Object Notation format (JSON) in row-major order
http://www.bom.gov.au/fwo/IDN60801/IDN60801.95995.json